Latest Weather Observations for Giles*

IDD60801

Issued at 7:31 am CST Sunday 31 May 2015 (issued every 30 minutes, with the page automatically refreshed every 10 minutes)

About weather observations | Map of weather stations | Latest weather observations for NT | Other Formats
Station Details ID: 013017 Name: GILES METEOROLOGICAL OFFICE Lat: -25.03 Lon: 128.30 Height: 598.0 m
Data from the previous 72 hours. | See also: Recent months at Giles*

* Giles observations are collected in the South Australia time zone, which includes daylight saving in the summer period. Therefore, Rain since 9am value is with respect to South Australia local time.

Date/Time
CST
Temp
°C
App
Temp
°C
Dew
Point
Rel
Hum
%
Delta-T
°C
Wind Press
QNH
hPa
Press
MSL
hPa
Rain
since 9 am
mm
Dir
 
Spd
km/h
Gust
km/h
Spd
kts
Gust
kts
31/07:30am 10.5 6.8 10.3 99 0.1 SE 20 30 11 16 1022.4 1020.7 3.8
31/07:00am 10.9 7.3 10.5 97 0.2 SE 20 28 11 15 1022.1 1020.4 3.8
31/06:30am 11.1 7.4 10.1 94 0.5 SE 20 30 11 16 1022.1 1020.4 3.8
31/06:00am 11.2 7.6 10.4 95 0.4 SE 20 30 11 16 1021.9 1020.1 3.8
31/05:30am 11.1 6.7 10.3 95 0.4 SE 24 33 13 18 1021.6 1019.8 3.8
31/05:00am 11.0 7.1 10.8 99 0.1 SE 22 32 12 17 1021.7 1019.9 3.8
31/04:30am 11.2 7.7 11.0 99 0.1 SE 20 30 11 16 1021.6 1019.8 3.8
31/04:00am 11.2 7.2 10.6 96 0.3 SE 22 30 12 16 1021.4 1019.6 3.8
31/03:30am 11.6 7.8 11.2 97 0.2 SE 22 30 12 16 1021.4 1019.6 3.8
31/03:00am 11.7 7.8 10.8 94 0.5 SE 22 28 12 15 1021.6 1019.8 3.8
31/02:30am 12.0 8.5 10.9 93 0.6 SE 20 26 11 14 1022.0 1020.2 3.8
31/02:00am 12.4 8.9 10.9 90 0.8 SE 20 28 11 15 1022.2 1020.5 3.8
31/01:30am 12.9 8.7 11.0 88 1.0 SE 24 33 13 18 1022.4 1020.7 3.8
31/01:00am 13.2 10.1 11.6 90 0.9 SE 19 24 10 13 1022.5 1020.8 3.8
31/12:30am 13.2 9.1 11.6 90 0.9 SE 24 32 13 17 1022.9 1021.1 3.8
31/12:00am 13.3 10.3 11.8 91 0.8 SE 19 26 10 14 1023.2 1021.4 3.8
 
Date/Time
CST
Temp
°C
App
Temp
°C
Dew
Point
Rel
Hum
%
Delta-T
°C
Wind Press
QNH
hPa
Press
MSL
hPa
Rain
since 9 am
mm
Dir
 
Spd
km/h
Gust
km/h
Spd
kts
Gust
kts
30/11:30pm 13.4 10.2 11.9 91 0.8 SE 20 26 11 14 1023.3 1021.5 3.8
30/11:00pm 13.4 11.4 12.7 95 0.4 SSE 15 26 8 14 1023.2 1021.4 3.8
30/10:30pm 13.3 11.0 12.9 97 0.2 SSE 17 20 9 11 1023.0 1021.2 3.8
30/10:00pm 13.7 11.3 12.6 93 0.6 SSE 17 26 9 14 1023.2 1021.4 3.8
30/09:00pm 14.0 11.0 12.6 91 0.8 SE 20 28 11 15 1023.2 1021.4 3.8
30/08:30pm 14.0 11.6 12.8 92 0.7 SE 17 24 9 13 1022.8 1021.0 3.8
30/08:00pm 14.1 11.4 13.0 93 0.6 SSE 19 28 10 15 1022.4 1020.7 3.8
30/07:30pm 14.1 11.9 13.2 94 0.5 SSE 17 24 9 13 1022.2 1020.5 3.8
30/07:00pm 14.2 12.0 13.3 94 0.5 SSE 17 20 9 11 1021.7 1019.9 3.8
30/06:30pm 14.4 12.2 13.3 93 0.6 SSE 17 22 9 12 1021.4 1019.6 3.8
30/05:30pm 14.7 13.1 13.8 94 0.5 S 15 20 8 11 1021.0 1019.2 3.8
30/05:00pm 14.4 13.2 13.9 97 0.3 S 13 19 7 10 1020.6 1018.9 3.8
30/04:30pm 14.5 12.5 14.0 97 0.3 S 17 22 9 12 1020.4 1018.6 3.8
30/04:00pm 14.5 13.0 14.3 99 0.1 SSW 15 19 8 10 1020.6 1018.9 3.8
30/03:30pm 14.8 13.3 14.3 97 0.3 S 15 20 8 11 1020.3 1018.5 3.6
30/03:00pm 14.9 14.3 14.6 98 0.2 S 11 17 6 9 1020.4 1018.6 3.4
30/02:30pm 15.1 14.5 14.6 97 0.3 S 11 17 6 9 1020.4 1018.6 3.4
30/02:00pm 15.3 15.1 14.6 96 0.4 SW 9 15 5 8 1021.1 1019.3 3.4
30/01:30pm 15.4 15.2 14.7 96 0.4 S 9 13 5 7 1021.2 1019.4 3.4
30/01:00pm 15.2 14.9 14.5 96 0.4 SW 9 11 5 6 1021.6 1019.8 3.4
30/12:30pm 15.2 14.9 14.3 94 0.5 S 9 11 5 6 1021.8 1020.0 3.4
30/12:00pm 15.0 15.0 14.3 96 0.4 ESE 7 9 4 5 1022.2 1020.5 3.4
30/11:30am 15.0 15.2 14.3 96 0.4 S 6 9 3 5 1022.4 1020.7 3.2
30/11:00am 14.8 14.8 14.1 96 0.4 SSW 7 9 4 5 1023.1 1021.3 3.2
30/10:30am 14.6 14.2 14.1 97 0.3 ENE 9 13 5 7 1022.5 1020.8 2.8
30/10:00am 14.6 14.6 14.1 97 0.3 ESE 7 11 4 6 1022.7 1020.9 2.4
30/09:52am 14.6 14.9 14.4 99 0.1 ESE 6 7 3 4 1022.7 1020.9 2.4
30/09:30am 14.5 15.5 14.3 99 0.1 SE 2 7 1 4 1022.9 1021.1 2.0
30/09:00am 14.5 15.1 14.3 99 0.1 NW 4 7 2 4 1023.4 1021.6 44.2
30/08:30am 14.4 14.4 14.2 99 0.1 NNE 7 9 4 5 1023.0 1021.2 41.6
30/08:19am 14.5 14.1 14.0 97 0.3 ENE 9 11 5 6 1022.8 1021.0 38.0
30/08:12am 14.4 13.6 14.1 98 0.2 E 11 11 6 6 1022.2 1020.5 37.6
30/08:00am 14.4 13.6 14.1 98 0.2 E 11 15 6 8 1022.0 1020.2 37.4
30/07:30am 14.4 13.6 13.9 97 0.3 E 11 15 6 8 1021.9 1020.1 37.0
30/07:00am 14.4 13.1 13.7 96 0.4 E 13 17 7 9 1021.7 1019.9 37.0
30/06:30am 14.3 13.0 13.6 96 0.4 ENE 13 17 7 9 1021.9 1020.1 36.8
30/06:24am 14.3 13.0 13.6 96 0.4 ENE 13 22 7 12 1022.0 1020.2 36.8
30/06:00am 14.1 13.2 13.8 98 0.2 ENE 11 15 6 8 1021.9 1020.1 36.2
30/05:30am 14.1 14.2 13.8 98 0.2 E 6 9 3 5 1022.1 1020.4 33.8
30/05:00am 14.0 13.1 13.7 98 0.2 ESE 11 15 6 8 1021.7 1019.9 32.2
30/04:30am 14.1 13.6 13.8 98 0.2 WSW 9 13 5 7 1022.8 1021.0 29.6
30/04:00am 14.0 12.7 13.7 98 0.2 E 13 19 7 10 1021.5 1019.7 25.2
30/03:30am 14.0 12.3 13.7 98 0.2 E 15 20 8 11 1022.1 1020.4 24.8
30/03:00am 14.0 13.1 13.6 97 0.2 ENE 11 13 6 7 1022.7 1020.9 23.4
30/02:30am 13.9 13.3 13.5 97 0.2 E 9 13 5 7 1022.5 1020.8 23.0
30/02:00am 13.8 12.5 13.6 99 0.1 ESE 13 19 7 10 1022.3 1020.6 22.6
30/01:30am 13.8 12.9 13.6 99 0.1 SE 11 17 6 9 1022.2 1020.5 21.4
30/01:00am 13.8 12.1 13.6 99 0.1 ESE 15 20 8 11 1022.2 1020.5 19.8
30/12:30am 13.9 12.5 13.4 97 0.3 SE 13 17 7 9 1022.5 1020.8 18.4
30/12:00am 14.1 11.6 13.4 96 0.4 E 19 26 10 14 1022.4 1020.7 17.8
 
Date/Time
CST
Temp
°C
App
Temp
°C
Dew
Point
Rel
Hum
%
Delta-T
°C
Wind Press
QNH
hPa
Press
MSL
hPa
Rain
since 9 am
mm
Dir
 
Spd
km/h
Gust
km/h
Spd
kts
Gust
kts
29/11:30pm 14.1 11.8 13.0 93 0.6 E 17 26 9 14 1023.0 1021.2 17.6
29/11:00pm 14.1 12.7 13.4 96 0.4 ENE 13 19 7 10 1023.2 1021.4 17.4
29/10:30pm 13.9 12.9 13.5 97 0.2 E 11 13 6 7 1023.3 1021.5 16.8
29/10:00pm 14.0 13.8 13.5 97 0.3 SE 7 9 4 5 1023.7 1022.0 15.0
29/09:52pm 14.1 13.8 13.4 96 0.4 E 7 9 4 5 1023.9 1022.2 14.6
29/09:30pm 14.1 13.2 13.6 97 0.3 ENE 11 17 6 9 1023.9 1022.2 13.2
29/09:08pm 14.1 12.8 13.6 97 0.3 SE 13 19 7 10 1023.5 1021.7 11.2
29/09:00pm 14.3 13.4 13.6 96 0.4 SSE 11 17 6 9 1023.7 1022.0 9.0
29/08:30pm 14.6 13.4 14.1 97 0.3 S 13 17 7 9 1023.0 1021.2 6.8
29/08:00pm 14.8 14.0 14.1 96 0.4 S 11 15 6 8 1022.8 1021.0 5.4
29/07:30pm 15.1 14.3 13.9 92 0.7 SSE 11 15 6 8 1022.2 1020.5 4.8
29/07:00pm 15.3 14.4 13.7 90 0.9 SE 11 15 6 8 1021.9 1020.1 4.8
29/06:30pm 15.8 14.8 13.4 86 1.4 SSE 11 15 6 8 1022.0 1020.2 4.4
29/06:00pm 16.0 14.0 13.8 87 1.3 SSE 17 20 9 11 1021.5 1019.7 4.4
29/05:30pm 16.7 14.7 14.0 84 1.6 SSW 17 26 9 14 1021.7 1019.9 4.4
29/05:00pm 17.1 16.4 15.3 89 1.1 SSW 13 20 7 11 1021.4 1019.6 4.4
29/04:30pm 17.1 16.5 15.6 91 0.9 SW 13 20 7 11 1021.3 1019.5 4.4
29/04:00pm 17.3 17.1 15.6 90 1.0 SSW 11 17 6 9 1021.1 1019.3 4.2
29/03:30pm 17.2 16.1 15.4 89 1.1 SW 15 20 8 11 1021.1 1019.3 4.2
29/03:00pm 17.5 17.4 16.0 91 0.9 SW 11 17 6 9 1020.7 1019.0 4.2
29/02:30pm 17.7 18.8 16.6 93 0.7 SSW 6 9 3 5 1020.3 1018.5 4.2
29/02:00pm 17.5 18.4 16.2 92 0.8 SSE 6 7 3 4 1019.8 1018.0 4.2
29/01:30pm 17.0 17.3 16.0 94 0.6 ESE 9 11 5 6 1020.1 1018.3 4.2
29/01:00pm 17.0 17.2 15.8 93 0.7 ESE 9 11 5 6 1020.6 1018.9 4.2
29/12:30pm 16.7 17.3 15.7 94 0.6 WSW 7 9 4 5 1021.5 1019.7 4.0
29/12:00pm 16.5 16.5 15.3 93 0.7 W 9 13 5 7 1022.1 1020.4 3.8
29/11:30am 16.4 16.8 15.4 94 0.6 NW 7 13 4 7 1022.5 1020.8 3.0
29/11:00am 16.3 16.6 14.9 91 0.8 WSW 7 9 4 5 1022.4 1020.7 1.8
29/10:30am 16.4 16.5 14.5 88 1.1 SSW 7 11 4 6 1022.3 1020.6 1.6
29/10:00am 15.9 16.4 15.1 95 0.5 NW 6 7 3 4 1022.7 1020.9 1.6
29/09:30am 15.9 15.3 14.7 93 0.7 SW 11 15 6 8 1022.8 1021.0 1.0
29/09:00am 15.9 17.6 15.1 95 0.5 CALM 0 6 0 3 1022.8 1021.0 6.0
29/08:30am 15.6 15.6 15.3 98 0.2 ESE 9 11 5 6 1022.1 1020.4 5.4
29/08:00am 15.5 15.1 15.3 99 0.1 SE 11 13 6 7 1022.0 1020.2 4.6
29/07:30am 15.6 16.0 15.4 99 0.1 SSE 7 11 4 6 1021.9 1020.1 3.8
29/07:00am 15.7 15.4 15.4 98 0.2 ESE 11 15 6 8 1021.4 1019.6 3.2
29/06:30am 15.6 16.2 15.3 98 0.2 E 6 7 3 4 1021.5 1019.7 2.8
29/06:00am 15.6 17.0 15.3 98 0.2 ENE 2 7 1 4 1021.4 1019.6 2.2
29/05:30am 15.5 16.5 15.3 99 0.1 SE 4 7 2 4 1021.1 1019.3 1.4
29/05:00am 15.5 15.5 15.3 99 0.1 SSW 9 11 5 6 1021.1 1019.3 1.2
29/04:30am 15.6 15.6 15.3 98 0.2 SW 9 13 5 7 1021.4 1019.6 0.6
29/04:00am 15.7 16.3 15.2 97 0.3 SSE 6 7 3 4 1020.9 1019.1 0.4
29/03:30am 15.8 16.1 15.1 96 0.4 SE 7 7 4 4 1021.0 1019.2 0.4
29/03:00am 16.0 16.4 15.2 95 0.5 SSE 7 9 4 5 1021.2 1019.4 0.4
29/02:30am 16.3 15.8 14.9 91 0.8 ENE 11 15 6 8 1020.9 1019.1 0.4
29/02:00am 15.9 15.9 15.1 95 0.5 SSE 9 13 5 7 1021.0 1019.2 0.4
29/01:30am 16.2 16.7 15.0 93 0.7 ESE 6 9 3 5 1021.0 1019.2 0.4
29/01:00am 16.4 16.3 14.9 91 0.9 E 9 11 5 6 1021.3 1019.5 0.4
29/12:30am 16.3 16.6 14.9 91 0.8 ENE 7 9 4 5 1021.6 1019.8 0.4
29/12:00am 16.4 18.1 15.1 92 0.8 CALM 0 6 0 3 1021.9 1020.1 0.4
 
Date/Time
CST
Temp
°C
App
Temp
°C
Dew
Point
Rel
Hum
%
Delta-T
°C
Wind Press
QNH
hPa
Press
MSL
hPa
Rain
since 9 am
mm
Dir
 
Spd
km/h
Gust
km/h
Spd
kts
Gust
kts
28/11:30pm 16.7 17.1 14.7 88 1.2 SSE 6 9 3 5 1021.4 1019.6 0.4
28/11:00pm 16.7 18.5 15.4 92 0.8 CALM 0 0 0 0 1022.1 1020.4 0.4
28/10:30pm 16.8 17.7 15.1 90 1.0 SE 4 7 2 4 1021.8 1020.0 0.4
28/10:00pm 17.1 17.0 14.9 87 1.3 S 9 13 5 7 1021.5 1019.7 0.4
28/09:30pm 17.5 17.3 14.8 84 1.6 NE 9 15 5 8 1020.9 1019.1 0.4
28/09:00pm 17.5 17.3 14.8 84 1.6 E 9 11 5 6 1020.6 1018.9 0.4
28/08:30pm 17.6 17.4 14.7 83 1.7 SSE 9 11 5 6 1020.9 1019.1 0.4
28/08:00pm 18.0 16.9 14.4 79 2.1 SSW 13 17 7 9 1021.2 1019.4 0.4
28/07:30pm 18.1 15.9 14.4 79 2.2 SW 19 24 10 13 1020.7 1019.0 0.4
28/07:00pm 18.2 17.9 15.4 84 1.7 S 11 20 6 11 1019.1 1017.2 0.4
28/06:30pm 18.6 16.6 14.9 79 2.2 E 19 26 10 14 1018.2 1016.4 0.4
28/06:00pm 18.4 17.3 15.4 83 1.8 E 15 22 8 12 1019.4 1017.6 0.4
28/05:30pm 19.4 19.0 15.1 76 2.6 ENE 11 13 6 7 1019.6 1017.8 0.2
28/05:00pm 19.9 19.3 14.5 71 3.2 SSW 11 15 6 8 1019.8 1018.0 0.2
28/04:30pm 21.1 20.7 12.5 58 5.0 S 6 7 3 4 1019.7 1017.9 0.2
28/04:00pm 21.1 20.4 12.1 56 5.2 S 7 9 4 5 1019.4 1017.6 0.2
28/03:30pm 20.8 20.7 13.3 62 4.4 S 6 7 3 4 1019.1 1017.2 0.2
28/03:00pm 20.8 20.1 13.1 61 4.5 SE 9 13 5 7 1018.7 1016.9 0.2
28/02:30pm 20.5 19.7 13.0 62 4.4 E 9 13 5 7 1018.8 1017.0 0.2
28/02:00pm 20.5 19.1 13.3 63 4.2 E 13 17 7 9 1019.1 1017.2 0.2
28/01:30pm 20.1 18.8 13.6 66 3.8 ESE 13 19 7 10 1019.3 1017.5 0.2
28/01:00pm 18.8 17.4 14.4 75 2.6 E 15 20 8 11 1019.9 1018.1 0.2
28/12:30pm 18.4 17.6 14.0 75 2.6 ESE 11 15 6 8 1020.6 1018.9 0.0
28/12:00pm 18.4 17.1 13.8 74 2.7 ESE 13 15 7 8 1020.7 1019.0 0.0
28/11:30am 17.9 16.8 14.2 79 2.2 ESE 13 17 7 9 1021.1 1019.3 0.0
28/11:00am 17.6 16.5 14.4 81 1.9 ESE 13 17 7 9 1021.2 1019.4 0.0
28/10:30am 16.7 15.2 14.3 86 1.4 E 15 20 8 11 1021.3 1019.5 0.0
28/10:00am 15.9 14.1 14.4 91 0.9 E 17 20 9 11 1021.4 1019.6 0.0
28/09:30am 15.6 14.2 14.4 93 0.7 ESE 15 19 8 10 1021.4 1019.6 0.0
28/09:00am 15.1 13.9 13.9 92 0.7 ESE 13 17 7 9 1021.6 1019.8 6.8
28/08:30am 14.8 12.8 13.8 94 0.6 E 17 22 9 12 1021.4 1019.6 6.8
28/08:00am 14.6 12.5 13.6 94 0.6 E 17 20 9 11 1021.3 1019.5 6.8

Other Formats:

Comma delimited format used in spreadsheet applications
http://www.bom.gov.au/fwo/IDD60801/IDD60801.94461.axf

JavaScript Object Notation format (JSON) in row-major order
http://www.bom.gov.au/fwo/IDD60801/IDD60801.94461.json